Time;durP1;ratioP1;P1;durP2;ratioP2;P2;SDS_P1;SDS_P2;PMS_P1;PMS_P2;Temp;Humidity;BMP_temperature;BMP_pressure;BME280_temperature;BME280_humidity;BME280_pressure;Samples;Min_cycle;Max_cycle;Signal;HPM_P1;HPM_P2
2024/01/26 00:01:40;;;;;;;3.75;3.10;;;;;;;8.94;87.15;99040.84;5001507;28;20237;-74
2024/01/26 00:04:08;;;;;;;4.10;3.70;;;;;;;9.32;85.97;99044.75;5001789;28;20254;-74
2024/01/26 00:06:35;;;;;;;3.92;3.45;;;;;;;9.32;85.62;99044.75;5000024;28;20207;-74
2024/01/26 00:09:09;;;;;;;4.25;3.80;;;;;;;9.18;86.23;99048.09;4998834;28;20373;-74
2024/01/26 00:11:36;;;;;;;3.28;2.97;;;;;;;9.20;85.58;99040.69;5005384;28;20203;-74
2024/01/26 00:14:02;;;;;;;4.38;3.97;;;;;;;9.02;86.17;99062.47;5000516;28;20314;-73
2024/01/26 00:16:29;;;;;;;3.88;3.58;;;;;;;8.89;86.31;99036.94;4997762;28;20211;-74
2024/01/26 00:18:55;;;;;;;4.20;3.80;;;;;;;8.72;87.27;99036.94;5000382;28;20281;-74
2024/01/26 00:21:23;;;;;;;4.50;4.10;;;;;;;8.62;87.98;99038.94;5000864;28;20228;-74
2024/01/26 00:23:50;;;;;;;4.22;3.92;;;;;;;8.74;87.72;99044.88;5004524;28;20209;-74
2024/01/26 00:26:17;;;;;;;3.97;3.67;;;;;;;8.66;87.63;99042.16;5000219;28;20239;-74
2024/01/26 00:28:43;;;;;;;3.08;2.88;;;;;;;8.77;87.07;99039.97;5000689;28;20215;-74
2024/01/26 00:31:15;;;;;;;3.42;3.22;;;;;;;8.67;87.42;99043.84;5001531;28;20215;-73
2024/01/26 00:33:41;;;;;;;3.35;3.13;;;;;;;8.89;86.81;99039.66;5004172;28;20203;-73
2024/01/26 00:36:08;;;;;;;3.00;2.80;;;;;;;8.82;87.36;99046.72;4998681;28;20279;-74
2024/01/26 00:38:36;;;;;;;2.88;2.67;;;;;;;8.80;87.44;99048.72;5015689;28;20295;-74
2024/01/26 00:41:03;;;;;;;2.55;2.35;;;;;;;8.96;86.40;99052.31;4996456;28;20659;-74
2024/01/26 00:43:29;;;;;;;2.35;2.15;;;;;;;8.96;86.37;99044.22;5001776;28;20290;-74
2024/01/26 00:45:56;;;;;;;2.35;2.15;;;;;;;9.03;86.23;99044.41;5002844;28;20213;-74
2024/01/26 00:48:22;;;;;;;2.67;2.47;;;;;;;9.03;86.16;99047.09;5005137;28;20286;-74
2024/01/26 00:50:50;;;;;;;2.97;2.40;;;;;;;9.00;85.73;99044.72;5006588;28;20252;-74
2024/01/26 00:53:16;;;;;;;2.33;2.13;;;;;;;9.14;85.41;99052.16;5006436;28;20209;-74
2024/01/26 00:55:44;;;;;;;1.92;1.83;;;;;;;8.95;86.24;99052.50;5017213;28;20210;-74
2024/01/26 00:58:11;;;;;;;2.20;2.10;;;;;;;8.92;85.99;99052.81;5004675;28;20290;-74
2024/01/26 01:00:37;;;;;;;2.03;1.80;;;;;;;8.93;86.55;99049.09;5004452;28;20233;-74
2024/01/26 01:03:04;;;;;;;1.98;1.88;;;;;;;9.07;86.29;99054.72;5006009;28;20224;-74
2024/01/26 01:05:31;;;;;;;2.10;1.92;;;;;;;8.98;86.73;99044.06;5004730;28;20261;-74
2024/01/26 01:07:57;;;;;;;1.60;1.50;;;;;;;8.89;87.31;99050.44;5004226;28;20214;-74
2024/01/26 01:10:25;;;;;;;2.00;1.80;;;;;;;8.90;87.21;99055.69;5001682;28;20209;-75
2024/01/26 01:12:53;;;;;;;1.55;1.45;;;;;;;8.95;86.75;99057.88;5017473;28;20202;-74
2024/01/26 01:15:23;;;;;;;1.70;1.60;;;;;;;8.98;86.28;99050.31;5002926;28;20291;-74
2024/01/26 01:17:50;;;;;;;1.80;1.70;;;;;;;9.03;86.64;99060.59;5000146;28;20209;-74
2024/01/26 01:20:17;;;;;;;1.95;1.60;;;;;;;9.12;86.21;99059.56;5005351;28;20195;-74
2024/01/26 01:22:45;;;;;;;1.50;1.40;;;;;;;9.07;86.17;99056.56;5002690;28;20237;-74
2024/01/26 01:25:12;;;;;;;2.20;1.73;;;;;;;9.13;85.77;99057.72;5004252;28;20306;-74
2024/01/26 01:27:39;;;;;;;1.40;1.25;;;;;;;9.14;86.17;99057.56;5003501;28;20303;-74
2024/01/26 01:30:09;;;;;;;1.40;1.30;;;;;;;9.28;85.54;99067.69;5014422;28;20297;-74
2024/01/26 01:32:36;;;;;;;1.75;1.40;;;;;;;9.28;85.75;99061.44;5018578;28;20656;-74
2024/01/26 01:35:02;;;;;;;2.03;1.50;;;;;;;9.17;85.94;99061.78;5004534;28;20199;-74
2024/01/26 01:37:29;;;;;;;2.00;1.77;;;;;;;9.17;86.48;99051.81;5003689;28;20286;-74
2024/01/26 01:39:55;;;;;;;1.60;1.50;;;;;;;9.05;86.66;99047.78;5020427;28;20206;-75
2024/01/26 01:42:22;;;;;;;1.70;1.60;;;;;;;9.06;86.80;99055.72;5003511;28;20229;-74
2024/01/26 01:44:49;;;;;;;1.60;1.50;;;;;;;9.08;86.57;99059.09;5002155;28;20196;-75
2024/01/26 01:47:17;;;;;;;1.70;1.60;;;;;;;8.94;86.81;99051.63;5002591;28;20856;-75
2024/01/26 01:49:44;;;;;;;2.08;1.88;;;;;;;9.16;86.11;99047.44;5000802;28;20857;-75
2024/01/26 01:52:15;;;;;;;1.75;1.65;;;;;;;9.07;86.26;99048.47;5017663;28;20203;-75
2024/01/26 01:54:42;;;;;;;1.65;1.55;;;;;;;9.03;86.57;99044.41;5002077;28;20230;-74
2024/01/26 01:57:11;;;;;;;2.05;1.85;;;;;;;9.16;86.49;99038.47;4999891;28;20710;-75
2024/01/26 01:59:38;;;;;;;1.80;1.70;;;;;;;9.21;86.43;99042.38;5000597;28;20211;-74
2024/01/26 02:02:05;;;;;;;1.70;1.60;;;;;;;9.20;86.42;99043.38;5001097;28;20234;-74
2024/01/26 02:04:33;;;;;;;2.33;2.08;;;;;;;9.23;86.18;99039.50;5003220;28;20209;-74
2024/01/26 02:07:00;;;;;;;1.80;1.70;;;;;;;9.36;85.65;99040.69;5000863;28;20329;-74
2024/01/26 02:09:27;;;;;;;1.65;1.55;;;;;;;9.32;85.32;99031.25;5002638;28;20207;-74
2024/01/26 02:11:54;;;;;;;1.75;1.40;;;;;;;9.21;86.23;99034.28;5009317;28;20199;-75
2024/01/26 02:14:20;;;;;;;1.38;1.27;;;;;;;9.22;85.77;99032.41;5003152;28;20195;-74
2024/01/26 02:16:54;;;;;;;1.00;1.00;;;;;;;9.35;84.91;99039.00;5001335;28;20217;-75
2024/01/26 02:19:21;;;;;;;1.35;1.25;;;;;;;9.50;84.56;99036.44;4999572;28;20230;-74
2024/01/26 02:21:49;;;;;;;1.85;1.58;;;;;;;9.63;83.80;99033.22;5001327;28;20209;-75
2024/01/26 02:24:17;;;;;;;1.60;1.38;;;;;;;9.38;84.31;99027.88;5003204;28;20209;-74
2024/01/26 02:26:43;;;;;;;1.73;1.50;;;;;;;9.39;84.05;99034.94;4997343;28;20232;-74
2024/01/26 02:29:10;;;;;;;1.33;1.23;;;;;;;9.40;84.44;99036.66;5000292;28;20579;-75
2024/01/26 02:31:37;;;;;;;2.00;1.40;;;;;;;9.35;84.52;99039.00;5001550;28;20330;-75
2024/01/26 02:34:03;;;;;;;1.65;1.55;;;;;;;9.25;85.11;99041.03;5000799;28;20212;-74
2024/01/26 02:36:33;;;;;;;2.22;1.58;;;;;;;9.14;85.32;99030.53;4998868;28;20210;-74
2024/01/26 02:39:00;;;;;;;1.95;1.85;;;;;;;9.04;85.92;99041.53;5000269;28;20205;-75
2024/01/26 02:41:29;;;;;;;1.60;1.50;;;;;;;8.98;85.83;99036.81;5003727;28;20237;-74
2024/01/26 02:43:56;;;;;;;1.50;1.40;;;;;;;9.09;85.64;99044.59;5017654;28;20226;-75
2024/01/26 02:46:22;;;;;;;1.40;1.30;;;;;;;8.89;87.03;99039.66;4998130;28;20209;-75
2024/01/26 02:48:49;;;;;;;1.50;1.40;;;;;;;9.06;86.41;99033.28;4999033;28;20202;-76
2024/01/26 02:51:16;;;;;;;1.40;1.30;;;;;;;8.91;87.02;99041.19;5002795;28;20678;-74
2024/01/26 02:53:42;;;;;;;1.50;1.40;;;;;;;8.88;87.30;99040.66;5000876;28;21537;-74
2024/01/26 02:56:09;;;;;;;1.70;1.60;;;;;;;8.90;86.77;99025.97;5001991;28;20288;-74
2024/01/26 02:58:37;;;;;;;1.48;1.20;;;;;;;8.86;87.29;99026.47;5005320;28;20209;-74
2024/01/26 03:01:04;;;;;;;1.40;1.30;;;;;;;8.83;87.27;99030.34;5000137;28;20212;-74
2024/01/26 03:03:30;;;;;;;1.50;1.40;;;;;;;8.82;87.12;99025.13;4990364;28;20229;-74
2024/01/26 03:05:57;;;;;;;1.30;1.20;;;;;;;8.84;86.95;99039.31;4998292;28;20197;-72
2024/01/26 03:08:24;;;;;;;1.45;1.35;;;;;;;8.86;86.90;99037.28;5002266;28;20687;-74
2024/01/26 03:10:51;;;;;;;1.42;1.33;;;;;;;8.95;86.31;99036.28;5007917;28;20320;-74
2024/01/26 03:13:18;;;;;;;1.17;1.08;;;;;;;8.88;86.11;99029.88;5002049;28;20206;-74
2024/01/26 03:15:49;;;;;;;1.48;1.20;;;;;;;8.75;86.27;99035.75;5002127;28;20206;-74
2024/01/26 03:18:17;;;;;;;1.10;1.10;;;;;;;8.77;86.52;99031.88;5001401;28;20197;-74
2024/01/26 03:20:44;;;;;;;1.30;1.15;;;;;;;8.75;86.64;99033.91;4997715;28;20211;-74
2024/01/26 03:23:10;;;;;;;1.30;1.20;;;;;;;8.88;86.12;99035.25;5001250;28;20301;-74
2024/01/26 03:25:37;;;;;;;2.17;1.25;;;;;;;8.82;86.26;99034.06;5002995;28;20436;-74
2024/01/26 03:28:04;;;;;;;1.17;1.08;;;;;;;8.71;86.65;99023.59;5001102;28;20211;-75
2024/01/26 03:30:31;;;;;;;1.38;1.27;;;;;;;8.76;86.25;99029.34;5001675;28;20560;-74
2024/01/26 03:32:59;;;;;;;1.17;0.98;;;;;;;8.94;85.55;99031.91;5000525;28;20294;-74
2024/01/26 03:35:27;;;;;;;1.35;1.10;;;;;;;8.92;85.01;99028.53;5001662;28;20645;-75
2024/01/26 03:37:53;;;;;;;1.30;1.08;;;;;;;8.87;85.81;99029.00;4984090;28;20210;-74
2024/01/26 03:40:21;;;;;;;1.42;1.10;;;;;;;8.82;85.85;99025.97;4998357;28;20194;-74
2024/01/26 03:42:47;;;;;;;1.77;1.08;;;;;;;8.83;85.42;99032.22;5003271;28;20233;-75
2024/01/26 03:45:14;;;;;;;1.75;1.00;;;;;;;8.60;86.22;99038.25;5002887;28;20249;-75
2024/01/26 03:47:40;;;;;;;0.90;0.90;;;;;;;8.70;86.23;99033.56;5001124;28;20203;-74
2024/01/26 03:50:09;;;;;;;1.00;1.00;;;;;;;8.75;85.74;99031.22;5000730;28;20207;-75
2024/01/26 03:52:36;;;;;;;1.30;1.20;;;;;;;8.85;85.48;99033.75;5005572;28;20569;-74
2024/01/26 03:55:06;;;;;;;1.15;1.05;;;;;;;8.82;85.76;99033.22;5006533;28;20260;-74
2024/01/26 03:57:33;;;;;;;1.10;1.00;;;;;;;8.83;85.43;99037.63;4998336;28;20203;-74
2024/01/26 04:00:00;;;;;;;1.08;0.98;;;;;;;8.83;85.02;99034.91;5005467;28;20617;-75
2024/01/26 04:02:26;;;;;;;1.08;0.98;;;;;;;8.85;84.99;99041.00;4999198;28;20222;-75
2024/01/26 04:04:53;;;;;;;1.02;0.95;;;;;;;8.89;84.70;99034.25;5001191;28;20213;-75
2024/01/26 04:07:20;;;;;;;1.10;1.00;;;;;;;8.90;84.52;99038.63;5001198;28;20204;-74
2024/01/26 04:09:47;;;;;;;1.35;1.00;;;;;;;8.92;84.38;99037.47;5014570;28;20206;-74
2024/01/26 04:12:14;;;;;;;1.15;1.05;;;;;;;8.61;85.40;99041.78;4999494;28;20207;-74
2024/01/26 04:14:40;;;;;;;2.97;1.00;;;;;;;8.58;85.71;99037.56;5002732;28;20213;-75
2024/01/26 04:17:07;;;;;;;1.10;1.00;;;;;;;8.66;85.55;99026.81;4999820;28;20221;-74
2024/01/26 04:19:33;;;;;;;1.35;1.10;;;;;;;8.65;85.61;99030.50;5002793;28;20678;-73
2024/01/26 04:22:00;;;;;;;0.90;0.90;;;;;;;8.71;85.21;99035.25;5004373;28;20603;-74
2024/01/26 04:24:28;;;;;;;1.80;1.00;;;;;;;8.75;85.17;99036.63;5004854;28;20581;-74
2024/01/26 04:26:54;;;;;;;1.20;1.10;;;;;;;8.71;85.17;99039.81;5005483;28;20226;-74
2024/01/26 04:29:20;;;;;;;1.77;1.20;;;;;;;8.77;85.13;99035.59;5018330;28;20224;-74
2024/01/26 04:31:47;;;;;;;1.80;1.30;;;;;;;8.71;85.13;99024.47;5007356;28;20198;-73
2024/01/26 04:34:14;;;;;;;1.27;1.00;;;;;;;8.73;85.34;99024.28;5003987;28;20293;-74
2024/01/26 04:36:46;;;;;;;1.58;1.05;;;;;;;8.77;84.88;99018.38;5002730;28;20215;-74
2024/01/26 04:39:13;;;;;;;1.10;1.00;;;;;;;8.69;85.25;99012.97;5003395;28;20670;-73
2024/01/26 04:41:42;;;;;;;1.30;1.10;;;;;;;8.57;85.49;99008.91;5003851;28;20341;-72
2024/01/26 04:44:09;;;;;;;1.63;1.13;;;;;;;8.63;85.65;99005.53;5004065;28;20233;-72
2024/01/26 04:46:36;;;;;;;1.35;1.00;;;;;;;8.60;85.89;99013.97;5003062;28;21874;-73
2024/01/26 04:49:03;;;;;;;1.30;1.20;;;;;;;8.62;85.68;99003.84;5005107;28;20209;-73
2024/01/26 04:51:30;;;;;;;1.80;1.10;;;;;;;8.59;85.65;99009.59;5003710;28;20656;-73
2024/01/26 04:53:56;;;;;;;1.35;1.25;;;;;;;8.58;85.74;99001.66;5001121;28;20198;-72
2024/01/26 04:56:23;;;;;;;1.63;1.30;;;;;;;8.55;85.93;99005.53;5001311;28;20199;-73
2024/01/26 04:58:51;;;;;;;1.77;1.30;;;;;;;8.47;86.20;99010.03;5001318;28;20206;-73
2024/01/26 05:01:17;;;;;;;1.33;1.23;;;;;;;8.42;86.71;99007.88;4999171;28;20552;-73
2024/01/26 05:03:43;;;;;;;1.60;1.33;;;;;;;8.33;86.73;99025.03;5003953;28;20226;-72
2024/01/26 05:06:10;;;;;;;1.30;1.20;;;;;;;8.48;86.38;99028.75;5009521;28;20199;-73
2024/01/26 05:08:38;;;;;;;1.60;1.50;;;;;;;8.42;86.58;99013.25;5004176;28;20203;-73
2024/01/26 05:11:05;;;;;;;1.10;1.00;;;;;;;8.35;86.71;99018.47;5003216;28;20670;-73
2024/01/26 05:13:31;;;;;;;1.60;1.10;;;;;;;8.43;86.58;99023.03;5010210;28;20203;-73
2024/01/26 05:15:59;;;;;;;1.33;1.23;;;;;;;8.47;86.62;99018.97;5003492;28;20798;-72
2024/01/26 05:18:27;;;;;;;1.65;1.30;;;;;;;8.58;85.93;99029.47;4999724;28;20195;-79
2024/01/26 05:20:53;;;;;;;1.10;1.00;;;;;;;8.67;85.23;99020.41;5003786;28;20276;-72
2024/01/26 05:23:20;;;;;;;1.42;1.33;;;;;;;8.71;84.70;99024.47;5003743;28;20234;-72
2024/01/26 05:25:47;;;;;;;2.15;1.13;;;;;;;8.68;84.95;99030.19;5003440;28;20549;-73
2024/01/26 05:28:14;;;;;;;1.33;1.23;;;;;;;8.71;85.09;99029.00;5002451;28;20211;-74
2024/01/26 05:30:40;;;;;;;1.60;1.50;;;;;;;8.82;84.64;99027.81;5002501;28;20213;-74
2024/01/26 05:33:09;;;;;;;1.95;1.30;;;;;;;8.72;84.94;99025.31;5004420;28;20210;-72
2024/01/26 05:35:35;;;;;;;1.60;1.25;;;;;;;8.88;84.42;99025.31;4999072;28;20210;-72
2024/01/26 05:38:02;;;;;;;1.40;1.30;;;;;;;8.85;84.59;99022.09;5003243;28;20830;-71
2024/01/26 05:40:28;;;;;;;1.63;1.52;;;;;;;8.88;84.67;99006.41;5001131;28;20211;-72
2024/01/26 05:42:57;;;;;;;1.40;1.30;;;;;;;8.83;84.82;99006.06;5002148;28;20233;-72
2024/01/26 05:45:23;;;;;;;1.55;1.25;;;;;;;8.96;84.30;99005.59;5004306;28;20208;-72
2024/01/26 05:47:49;;;;;;;1.85;1.15;;;;;;;8.89;84.95;99009.94;5002791;28;20205;-72
2024/01/26 05:50:19;;;;;;;1.38;1.20;;;;;;;8.89;84.49;99010.81;5002150;28;20199;-72
2024/01/26 05:52:47;;;;;;;1.58;1.20;;;;;;;8.96;83.98;99002.88;4998706;28;20214;-72
2024/01/26 05:55:14;;;;;;;1.20;1.10;;;;;;;8.99;83.74;98995.28;4992363;28;20203;-71
2024/01/26 05:57:41;;;;;;;1.75;1.20;;;;;;;8.89;84.03;98999.16;5001768;28;20688;-72
2024/01/26 06:00:09;;;;;;;1.30;1.10;;;;;;;9.01;83.73;98989.72;4995857;28;20201;-72
2024/01/26 06:02:36;;;;;;;1.27;1.17;;;;;;;9.03;83.11;98999.34;4995715;28;20203;-72
2024/01/26 06:05:03;;;;;;;0.90;0.90;;;;;;;8.96;83.65;98995.63;4998163;28;20225;-72
2024/01/26 06:07:37;;;;;;;1.00;1.00;;;;;;;9.00;83.38;98996.13;4998728;28;20681;-72
2024/01/26 06:10:03;;;;;;;1.30;1.20;;;;;;;9.00;82.93;99001.53;5017268;28;20203;-72
2024/01/26 06:12:30;;;;;;;1.30;1.05;;;;;;;8.93;82.94;99005.91;5001130;28;20211;-72
2024/01/26 06:14:56;;;;;;;1.23;1.13;;;;;;;8.91;83.32;99010.63;5000020;28;20270;-72
2024/01/26 06:17:23;;;;;;;1.55;1.05;;;;;;;8.96;82.91;99016.38;5002008;28;20196;-72
2024/01/26 06:19:49;;;;;;;1.60;1.50;;;;;;;9.07;82.57;99010.66;5003529;28;20221;-72
2024/01/26 06:22:16;;;;;;;2.22;1.10;;;;;;;9.05;82.44;99013.53;5001547;28;20886;-72
2024/01/26 06:24:44;;;;;;;1.00;1.00;;;;;;;8.99;82.39;99006.09;5000936;28;20233;-72
2024/01/26 06:27:11;;;;;;;1.13;1.02;;;;;;;9.04;82.13;99009.13;5000674;28;20195;-72
2024/01/26 06:29:37;;;;;;;2.80;1.35;;;;;;;9.00;82.51;99001.53;5002422;28;20309;-72
2024/01/26 06:32:04;;;;;;;1.52;1.25;;;;;;;8.98;82.82;99003.56;5000700;28;20207;-75
2024/01/26 06:34:30;;;;;;;1.17;1.13;;;;;;;8.99;82.93;99016.88;4988464;28;20207;-72
2024/01/26 06:36:58;;;;;;;2.08;1.20;;;;;;;8.97;82.81;99007.28;5003272;28;20678;-71
2024/01/26 06:39:25;;;;;;;1.45;1.35;;;;;;;8.96;82.71;99024.47;5001450;28;20290;-72
2024/01/26 06:41:53;;;;;;;2.08;1.40;;;;;;;8.85;83.13;99014.84;4997715;28;20315;-72
2024/01/26 06:44:19;;;;;;;1.58;1.45;;;;;;;8.97;82.80;99013.50;4999593;28;20250;-71
2024/01/26 06:46:46;;;;;;;1.30;1.20;;;;;;;9.01;82.76;99008.63;5002858;28;20537;-71
2024/01/26 06:49:12;;;;;;;4.75;1.52;;;;;;;8.99;82.92;99013.34;5001499;28;20203;-71
2024/01/26 06:51:39;;;;;;;2.42;1.20;;;;;;;8.93;82.98;99006.75;5002199;28;20688;-70
2024/01/26 06:54:05;;;;;;;1.65;0.95;;;;;;;8.85;83.89;99011.28;4992928;28;20203;-71
2024/01/26 06:56:32;;;;;;;1.50;1.40;;;;;;;9.00;83.37;99004.22;4996075;28;20206;-71
2024/01/26 06:59:00;;;;;;;1.98;1.15;;;;;;;8.95;83.32;99012.00;4999256;28;20199;-70
2024/01/26 07:01:26;;;;;;;1.75;1.15;;;;;;;8.99;83.09;99016.88;4999491;28;20202;-71
2024/01/26 07:03:53;;;;;;;3.53;1.17;;;;;;;8.90;83.10;99012.50;4996509;28;20223;-71
2024/01/26 07:06:20;;;;;;;1.38;0.90;;;;;;;9.05;82.19;99018.94;4993862;28;20286;-71
2024/01/26 07:08:46;;;;;;;1.10;1.00;;;;;;;9.13;81.92;99007.25;4996626;28;20219;-71
2024/01/26 07:11:14;;;;;;;1.30;1.20;;;;;;;9.17;81.28;99007.75;4994649;28;20203;-71
2024/01/26 07:13:41;;;;;;;2.22;1.20;;;;;;;9.19;81.59;98994.94;4988469;28;20206;-71
2024/01/26 07:16:09;;;;;;;2.25;1.10;;;;;;;9.19;81.33;98995.78;4994561;28;20194;-71
2024/01/26 07:18:35;;;;;;;1.05;0.95;;;;;;;9.26;80.92;98988.69;5000808;28;20204;-71
2024/01/26 07:21:06;;;;;;;2.30;1.20;;;;;;;9.40;80.67;98992.56;5000214;28;20199;-72
2024/01/26 07:23:33;;;;;;;1.38;1.23;;;;;;;9.37;80.53;98991.06;5001582;28;20219;-71
2024/01/26 07:25:59;;;;;;;1.25;1.15;;;;;;;9.44;80.34;98989.31;5001220;28;20503;-71
2024/01/26 07:28:26;;;;;;;1.23;1.13;;;;;;;9.48;80.12;98991.69;5000239;28;20699;-70
2024/01/26 07:30:52;;;;;;;1.13;1.05;;;;;;;9.56;80.15;98981.72;4995906;28;20207;-70
2024/01/26 07:33:20;;;;;;;1.33;1.05;;;;;;;9.62;79.45;98972.06;4999405;28;20206;-70
2024/01/26 07:35:47;;;;;;;1.27;1.10;;;;;;;9.58;79.46;98974.28;4999504;28;20213;-70
2024/01/26 07:38:13;;;;;;;1.40;1.30;;;;;;;9.64;79.02;98962.78;4998779;28;20205;-70
2024/01/26 07:40:40;;;;;;;1.65;1.27;;;;;;;9.61;79.64;98960.44;5001435;28;20581;-70
2024/01/26 07:43:06;;;;;;;2.85;1.00;;;;;;;9.64;79.03;98965.50;5000097;28;20198;-70
2024/01/26 07:45:33;;;;;;;1.13;1.02;;;;;;;9.67;78.96;98973.25;5000762;28;20762;-71
2024/01/26 07:48:00;;;;;;;1.30;1.20;;;;;;;9.76;78.65;98993.81;4994486;28;20788;-71
2024/01/26 07:50:28;;;;;;;1.50;1.40;;;;;;;9.75;78.55;98988.56;5001347;28;20349;-70
2024/01/26 07:52:54;;;;;;;1.10;1.00;;;;;;;9.83;78.43;98985.84;5000110;28;20199;-70
2024/01/26 07:55:21;;;;;;;2.28;1.17;;;;;;;9.91;77.83;98985.00;5007627;28;20210;-70
2024/01/26 07:57:47;;;;;;;1.15;1.05;;;;;;;9.84;77.99;98963.22;4998863;28;20209;-70
2024/01/26 08:00:14;;;;;;;1.85;1.40;;;;;;;10.09;77.28;98975.59;5001853;28;20199;-70
2024/01/26 08:02:41;;;;;;;1.48;1.20;;;;;;;10.26;76.77;98962.03;4999397;28;20550;-71
2024/01/26 08:05:08;;;;;;;1.15;0.90;;;;;;;10.43;76.28;98956.34;4992666;28;20683;-70
2024/01/26 08:07:36;;;;;;;1.13;0.95;;;;;;;10.29;76.60;98967.09;4997307;28;20210;-70
2024/01/26 08:10:03;;;;;;;1.00;0.90;;;;;;;10.24;76.58;98975.75;4997549;28;20207;-70
2024/01/26 08:12:30;;;;;;;1.00;0.90;;;;;;;10.21;76.81;98961.72;4995969;28;21134;-70
2024/01/26 08:14:57;;;;;;;1.40;1.30;;;;;;;10.32;76.38;98959.47;4996454;28;20209;-71
2024/01/26 08:17:23;;;;;;;1.40;1.00;;;;;;;10.27;76.43;98964.56;5005578;28;20448;-70
2024/01/26 08:19:50;;;;;;;1.92;1.02;;;;;;;10.29;76.53;98962.53;5000616;28;20211;-71
2024/01/26 08:22:16;;;;;;;1.27;0.93;;;;;;;10.37;76.12;98958.94;5000575;28;20294;-70
2024/01/26 08:24:44;;;;;;;2.38;1.17;;;;;;;10.35;76.25;98971.81;4993639;28;20215;-71
2024/01/26 08:27:11;;;;;;;1.20;1.10;;;;;;;10.33;75.98;98963.03;5010753;28;20202;-71
2024/01/26 08:29:38;;;;;;;1.20;0.90;;;;;;;10.46;75.85;98965.97;4998329;28;20662;-71
2024/01/26 08:32:05;;;;;;;1.77;1.10;;;;;;;10.46;75.56;98968.69;4998278;28;20214;-71
2024/01/26 08:34:32;;;;;;;1.38;1.00;;;;;;;10.43;75.53;98958.22;4998033;28;20506;-71
2024/01/26 08:36:58;;;;;;;2.88;1.10;;;;;;;10.38;75.78;98949.81;4991301;28;20226;-71
2024/01/26 08:39:25;;;;;;;0.85;0.85;;;;;;;10.29;75.87;98945.47;5012766;28;20213;-71
2024/01/26 08:41:55;;;;;;;2.45;1.30;;;;;;;10.41;75.59;98944.00;4993117;28;20398;-71
2024/01/26 08:44:22;;;;;;;1.50;1.23;;;;;;;10.35;75.31;98939.34;4996693;28;20361;-71
2024/01/26 08:46:48;;;;;;;1.13;1.00;;;;;;;10.36;75.41;98927.50;4994559;28;20213;-71
2024/01/26 08:49:15;;;;;;;1.42;1.25;;;;;;;10.38;75.38;98925.47;4996103;28;20203;-70
2024/01/26 08:51:42;;;;;;;1.10;1.00;;;;;;;10.55;75.10;98924.31;4994788;28;20207;-70
2024/01/26 08:54:10;;;;;;;1.33;0.90;;;;;;;10.41;75.00;98922.38;4995578;28;20205;-71
2024/01/26 08:56:41;;;;;;;1.77;1.33;;;;;;;10.45;75.09;98915.56;4997501;28;20203;-71
2024/01/26 08:59:09;;;;;;;2.15;1.15;;;;;;;10.46;74.57;98892.06;5013104;28;20214;-71
2024/01/26 09:01:36;;;;;;;2.67;1.05;;;;;;;10.53;74.50;98910.13;4994675;28;20202;-71
2024/01/26 09:04:05;;;;;;;2.47;1.00;;;;;;;10.66;74.10;98907.66;4997665;28;20287;-71
2024/01/26 09:06:31;;;;;;;1.40;0.93;;;;;;;10.53;74.47;98902.00;5003643;28;20207;-71
2024/01/26 09:08:58;;;;;;;1.38;1.15;;;;;;;10.58;74.40;98896.88;4997463;28;20239;-71
2024/01/26 09:11:24;;;;;;;1.25;1.02;;;;;;;10.71;74.17;98890.88;5002790;28;20209;-71
2024/01/26 09:13:51;;;;;;;1.40;1.10;;;;;;;10.74;73.88;98890.47;5001404;28;20691;-70
2024/01/26 09:16:19;;;;;;;1.35;1.20;;;;;;;10.62;73.99;98891.94;5002438;28;20679;-70
2024/01/26 09:18:45;;;;;;;1.10;1.00;;;;;;;10.70;73.70;98897.31;5001205;28;20706;-71
2024/01/26 09:21:12;;;;;;;1.25;1.00;;;;;;;10.73;73.75;98897.75;5002441;28;20209;-71
2024/01/26 09:23:38;;;;;;;1.23;1.13;;;;;;;10.75;73.67;98903.00;5017971;28;20203;-71
2024/01/26 09:26:05;;;;;;;1.52;1.10;;;;;;;10.81;73.80;98896.00;5004491;28;20572;-71
2024/01/26 09:28:31;;;;;;;2.45;1.27;;;;;;;10.62;74.73;98906.34;5002529;28;20639;-70
2024/01/26 09:30:58;;;;;;;1.20;1.10;;;;;;;10.72;74.60;98893.38;5002639;28;20210;-71
2024/01/26 09:33:26;;;;;;;1.27;1.17;;;;;;;10.88;74.14;98896.97;5000258;28;20195;-71
2024/01/26 09:35:54;;;;;;;1.90;1.48;;;;;;;10.73;74.85;98900.47;5003943;28;20203;-71
2024/01/26 09:38:21;;;;;;;2.08;1.17;;;;;;;10.83;74.44;98904.81;5000971;28;20661;-71
2024/01/26 09:40:47;;;;;;;1.45;1.27;;;;;;;10.88;74.61;98899.69;4998168;28;21119;-71
2024/01/26 09:43:14;;;;;;;1.13;1.08;;;;;;;10.66;75.37;98894.13;4997375;28;20306;-71
2024/01/26 09:45:40;;;;;;;2.10;1.50;;;;;;;10.78;75.15;98895.34;4998134;28;20309;-71
2024/01/26 09:48:07;;;;;;;1.30;1.20;;;;;;;10.78;75.16;98889.94;4996784;28;20219;-70
2024/01/26 09:50:35;;;;;;;1.40;1.30;;;;;;;10.89;74.80;98874.28;4997556;28;20657;-71
2024/01/26 09:53:03;;;;;;;1.67;1.30;;;;;;;10.85;75.03;98881.09;4995369;28;20202;-71
2024/01/26 09:55:32;;;;;;;1.10;1.00;;;;;;;10.81;74.91;98879.75;5007229;28;20218;-70
2024/01/26 09:57:59;;;;;;;1.40;1.30;;;;;;;10.75;75.92;98898.41;4996158;28;20778;-71
2024/01/26 10:00:25;;;;;;;3.63;1.55;;;;;;;10.68;75.90;98885.81;4998129;28;20277;-71
2024/01/26 10:02:53;;;;;;;1.65;1.55;;;;;;;10.72;75.85;98884.44;4995803;28;20210;-70
2024/01/26 10:05:21;;;;;;;1.63;1.20;;;;;;;10.73;76.06;98894.22;4997690;28;20313;-70
2024/01/26 10:07:50;;;;;;;1.70;1.20;;;;;;;10.86;75.61;98886.31;4995423;28;20207;-71
2024/01/26 10:10:17;;;;;;;1.50;1.35;;;;;;;10.90;75.54;98895.78;4996187;28;20232;-70
2024/01/26 10:12:43;;;;;;;1.40;1.30;;;;;;;10.89;75.54;98893.25;4995068;28;20216;-71
2024/01/26 10:15:10;;;;;;;1.50;1.30;;;;;;;10.86;75.85;98896.31;4993610;28;20196;-71
2024/01/26 10:17:37;;;;;;;1.52;1.42;;;;;;;10.80;75.91;98881.63;4996813;28;20260;-71
2024/01/26 10:20:13;;;;;;;1.55;1.40;;;;;;;10.98;75.86;98892.16;4999279;28;20199;-71
2024/01/26 10:22:40;;;;;;;1.25;1.15;;;;;;;10.88;75.25;98881.56;4999805;28;20234;-71
2024/01/26 10:25:08;;;;;;;2.20;1.30;;;;;;;11.00;74.96;98885.53;5001081;28;20242;-71
2024/01/26 10:27:35;;;;;;;1.38;1.27;;;;;;;11.03;75.05;98879.75;5000169;28;20277;-71
2024/01/26 10:30:02;;;;;;;2.17;1.25;;;;;;;11.10;74.49;98886.09;5001280;28;20203;-71
2024/01/26 10:32:30;;;;;;;2.05;1.20;;;;;;;11.13;74.50;98879.47;5001629;28;20213;-71
2024/01/26 10:34:58;;;;;;;1.95;1.20;;;;;;;11.19;74.13;98877.88;4997880;28;20213;-71
2024/01/26 10:37:26;;;;;;;1.83;1.55;;;;;;;11.09;73.81;98883.56;4995387;28;20206;-71
2024/01/26 10:39:55;;;;;;;1.53;1.03;;;;;;;11.14;73.65;98867.59;5000983;28;20206;-71
2024/01/26 10:42:26;;;;;;;1.98;1.50;;;;;;;11.08;73.88;98876.44;5001918;28;21207;-71
2024/01/26 10:44:53;;;;;;;1.58;1.13;;;;;;;11.07;73.64;98869.34;5002960;28;20257;-71
2024/01/26 10:47:20;;;;;;;1.00;1.00;;;;;;;11.11;73.22;98859.84;5001862;28;20242;-71
2024/01/26 10:49:49;;;;;;;1.38;1.20;;;;;;;11.12;73.40;98856.09;5002763;28;20238;-71
2024/01/26 10:52:17;;;;;;;1.30;1.20;;;;;;;11.17;73.33;98869.09;5000644;28;20199;-70
2024/01/26 10:54:45;;;;;;;1.90;1.20;;;;;;;11.18;73.12;98847.22;5000079;28;20214;-70
2024/01/26 10:57:12;;;;;;;2.35;1.00;;;;;;;11.31;72.96;98852.84;4998801;28;20210;-71
2024/01/26 10:59:41;;;;;;;1.45;1.10;;;;;;;11.24;72.95;98832.94;5000844;28;20275;-70
2024/01/26 11:02:09;;;;;;;1.38;1.27;;;;;;;11.19;73.48;98824.53;5002390;28;20218;-70
2024/01/26 11:04:35;;;;;;;1.85;1.33;;;;;;;11.24;73.09;98832.94;5006269;28;20585;-71
2024/01/26 11:07:03;;;;;;;1.17;1.00;;;;;;;11.19;73.29;98813.69;4996719;28;20221;-71
2024/01/26 11:09:34;;;;;;;1.10;1.00;;;;;;;11.23;73.43;98831.25;4995070;28;21140;-71
2024/01/26 11:12:02;;;;;;;1.80;0.90;;;;;;;11.16;73.39;98843.88;4995398;28;20736;-71
2024/01/26 11:14:28;;;;;;;1.30;1.20;;;;;;;11.17;73.78;98828.44;4998256;28;20609;-70
2024/01/26 11:17:08;;;;;;;1.30;1.10;;;;;;;11.08;74.12;98825.81;4995032;28;20211;-70
2024/01/26 11:19:35;;;;;;;2.38;1.15;;;;;;;11.14;73.58;98828.81;4992759;28;20274;-70
2024/01/26 11:22:04;;;;;;;0.98;0.98;;;;;;;11.09;74.16;98819.38;4994831;28;20270;-71
2024/01/26 11:24:32;;;;;;;1.45;1.10;;;;;;;11.11;74.37;98805.66;4992176;28;20581;-70
2024/01/26 11:26:59;;;;;;;1.65;1.00;;;;;;;11.17;74.05;98802.19;4991871;28;20205;-71
2024/01/26 11:29:31;;;;;;;1.00;1.00;;;;;;;11.22;74.23;98810.63;4997619;28;20207;-70
2024/01/26 11:31:59;;;;;;;1.92;1.30;;;;;;;11.19;74.44;98808.28;4996771;28;20203;-71
2024/01/26 11:34:26;;;;;;;2.00;1.10;;;;;;;11.21;74.23;98803.50;4992948;28;20203;-71
2024/01/26 11:37:05;;;;;;;2.58;1.35;;;;;;;11.25;74.56;98815.66;4999102;28;20282;-68
2024/01/26 11:39:33;;;;;;;1.47;1.30;;;;;;;11.28;74.31;98812.59;4999145;28;20551;-70